Time;durP1;ratioP1;P1;durP2;ratioP2;P2;SDS_P1;SDS_P2;PMS_P1;PMS_P2;Temp;Humidity;BMP_temperature;BMP_pressure;BME280_temperature;BME280_humidity;BME280_pressure;Samples;Min_cycle;Max_cycle;Signal;HPM_P1;HPM_P2
2023/02/18 00:01:19;;;;;;;36.85;19.48;;;;;;;3.96;100.00;93539.97;6218564;23;20031;-77
2023/02/18 00:03:46;;;;;;;39.38;18.63;;;;;;;4.00;100.00;93540.28;6220999;23;20013;-77
2023/02/18 00:06:13;;;;;;;37.78;18.30;;;;;;;4.01;100.00;93530.72;6222008;23;20055;-77
2023/02/18 00:08:39;;;;;;;38.67;18.67;;;;;;;4.02;100.00;93537.50;6218920;23;20462;-77
2023/02/18 00:11:05;;;;;;;35.65;17.73;;;;;;;4.01;100.00;93525.53;6219642;23;20036;-77
2023/02/18 00:13:31;;;;;;;37.55;19.42;;;;;;;3.98;100.00;93534.53;6219879;23;20016;-77
2023/02/18 00:16:02;;;;;;;38.25;19.35;;;;;;;3.97;100.00;93525.97;6219445;23;20033;-78
2023/02/18 00:18:27;;;;;;;36.85;17.45;;;;;;;3.95;100.00;93522.81;6220784;23;20199;-78
2023/02/18 00:20:53;;;;;;;36.20;17.60;;;;;;;3.98;100.00;93516.41;6220084;23;20519;-77
2023/02/18 00:23:18;;;;;;;41.17;18.27;;;;;;;3.97;100.00;93515.63;6221528;23;20020;-78
2023/02/18 00:25:44;;;;;;;35.65;18.30;;;;;;;3.96;100.00;93516.66;6221592;23;20198;-78
2023/02/18 00:28:09;;;;;;;34.95;18.00;;;;;;;3.94;100.00;93512.66;6194389;23;20013;-77
2023/02/18 00:30:40;;;;;;;38.25;18.42;;;;;;;3.96;100.00;93513.25;6221245;23;20413;-79
2023/02/18 00:33:05;;;;;;;35.50;17.20;;;;;;;3.97;100.00;93513.03;6230819;23;20457;-79
2023/02/18 00:35:31;;;;;;;31.08;17.05;;;;;;;3.99;100.00;93501.69;6204939;23;20032;-79
2023/02/18 00:37:57;;;;;;;37.20;17.48;;;;;;;3.97;100.00;93500.06;6228056;23;20020;-79
2023/02/18 00:40:22;;;;;;;35.83;17.50;;;;;;;3.97;100.00;93492.31;6227897;23;20050;-78
2023/02/18 00:42:48;;;;;;;35.50;18.30;;;;;;;3.94;100.00;93495.34;6229132;23;20016;-78
2023/02/18 00:45:14;;;;;;;34.42;18.75;;;;;;;3.94;100.00;93505.72;6201525;23;20011;-78
2023/02/18 00:47:40;;;;;;;37.97;18.75;;;;;;;3.90;100.00;93485.66;6178065;23;20020;-78
2023/02/18 00:50:06;;;;;;;37.15;18.33;;;;;;;3.93;100.00;93498.94;6229738;23;20003;-78
2023/02/18 00:52:32;;;;;;;36.85;18.67;;;;;;;3.96;100.00;93495.09;6229855;23;20049;-78
2023/02/18 00:54:59;;;;;;;40.22;18.73;;;;;;;3.93;100.00;93482.59;6227250;23;20001;-78
2023/02/18 00:57:25;;;;;;;37.63;19.55;;;;;;;3.94;100.00;93484.16;6230192;23;20020;-78
2023/02/18 00:59:50;;;;;;;37.53;20.75;;;;;;;3.93;100.00;93485.97;6204077;23;20016;-78
2023/02/18 01:02:17;;;;;;;37.90;20.60;;;;;;;3.91;100.00;93488.00;6178884;23;20013;-78
2023/02/18 01:04:42;;;;;;;36.90;19.80;;;;;;;3.92;100.00;93481.03;6203961;23;20000;-78
2023/02/18 01:07:09;;;;;;;35.38;19.63;;;;;;;3.91;100.00;93482.03;6230920;23;20072;-79
2023/02/18 01:09:35;;;;;;;36.22;19.65;;;;;;;3.88;100.00;93472.13;6202793;23;20036;-78
2023/02/18 01:12:01;;;;;;;34.72;18.98;;;;;;;3.91;100.00;93488.00;6201799;23;20012;-78
2023/02/18 01:14:27;;;;;;;34.50;19.42;;;;;;;3.90;100.00;93483.06;6177978;23;20008;-78
2023/02/18 01:16:52;;;;;;;34.40;19.75;;;;;;;3.89;100.00;93473.69;6229768;23;20044;-78
2023/02/18 01:19:18;;;;;;;36.97;20.85;;;;;;;3.88;100.00;93475.50;6229793;23;20104;-79
2023/02/18 01:21:44;;;;;;;36.05;20.70;;;;;;;3.86;100.00;93479.31;6202949;23;20013;-79
2023/02/18 01:24:09;;;;;;;38.88;20.75;;;;;;;3.84;100.00;93476.94;6203914;23;20015;-78
2023/02/18 01:26:35;;;;;;;35.97;20.63;;;;;;;3.81;100.00;93479.19;6203076;23;20012;-77
2023/02/18 01:29:00;;;;;;;37.55;20.42;;;;;;;3.80;100.00;93477.59;6203110;23;20068;-78
2023/02/18 01:31:26;;;;;;;39.42;20.77;;;;;;;3.76;100.00;93479.84;6169785;23;20020;-78
2023/02/18 01:33:52;;;;;;;39.53;21.35;;;;;;;3.75;100.00;93473.88;6170534;23;20001;-77
2023/02/18 01:36:17;;;;;;;36.00;20.48;;;;;;;3.75;100.00;93480.84;6194937;23;20013;-78
2023/02/18 01:38:43;;;;;;;35.67;20.25;;;;;;;3.73;100.00;93472.50;6169316;23;20050;-78
2023/02/18 01:41:09;;;;;;;36.17;20.73;;;;;;;3.71;100.00;93475.31;6194196;23;20112;-77
2023/02/18 01:43:35;;;;;;;37.85;21.15;;;;;;;3.69;100.00;93473.94;6220665;23;20028;-77
2023/02/18 01:46:18;;;;;;;38.63;20.13;;;;;;;3.66;100.00;93472.59;6195485;23;20023;-78
2023/02/18 01:48:59;;;;;;;39.95;20.30;;;;;;;3.63;100.00;93465.28;6171479;23;20013;-78
2023/02/18 01:51:31;;;;;;;43.40;21.73;;;;;;;3.63;100.00;93467.06;6195268;23;20013;-78
2023/02/18 01:53:57;;;;;;;37.20;19.65;;;;;;;3.63;100.00;93467.06;6223941;23;20027;-78
2023/02/18 01:56:39;;;;;;;38.58;19.90;;;;;;;3.63;100.00;93461.91;6230313;23;20040;-78
2023/02/18 01:59:10;;;;;;;34.17;19.52;;;;;;;3.62;100.00;93460.31;6229415;23;20039;-77
2023/02/18 02:01:37;;;;;;;39.30;19.83;;;;;;;3.65;100.00;93465.06;6222468;23;20333;-77
2023/02/18 02:04:03;;;;;;;40.28;19.50;;;;;;;3.65;100.00;93458.06;6201328;23;20019;-79
2023/02/18 02:06:28;;;;;;;38.08;20.02;;;;;;;3.66;100.00;93457.06;6202942;23;20118;-79
2023/02/18 02:09:00;;;;;;;36.33;20.05;;;;;;;3.63;100.00;93457.50;6181558;23;20005;-77
2023/02/18 02:11:38;;;;;;;37.70;20.58;;;;;;;3.67;100.00;93457.84;6203452;23;20063;-79
2023/02/18 02:14:29;;;;;;;33.78;19.13;;;;;;;3.68;100.00;93459.44;6231614;23;20013;-78
2023/02/18 02:17:03;;;;;;;38.85;19.67;;;;;;;3.65;100.00;93457.28;6228874;23;20092;-79
2023/02/18 02:19:37;;;;;;;37.72;20.90;;;;;;;3.64;100.00;93460.88;6177989;23;20319;-79
2023/02/18 02:22:41;;;;;;;38.28;19.58;;;;;;;3.64;100.00;93461.66;6230015;23;20009;-79
2023/02/18 02:25:15;;;;;;;34.22;17.92;;;;;;;3.62;100.00;93460.31;6178272;23;20008;-78
2023/02/18 02:28:09;;;;;;;33.60;19.25;;;;;;;3.64;100.00;93458.28;6202884;23;20016;-79
2023/02/18 02:31:24;;;;;;;36.63;19.65;;;;;;;3.62;100.00;93452.53;6202370;23;20023;-78
2023/02/18 02:34:15;;;;;;;36.63;20.27;;;;;;;3.60;100.00;93444.19;6162808;23;20012;-78
2023/02/18 02:36:40;;;;;;;40.45;20.70;;;;;;;3.62;100.00;93452.53;6203765;23;20059;-78
2023/02/18 02:39:15;;;;;;;34.42;21.85;;;;;;;3.58;100.00;93444.44;6229870;23;19996;-78
2023/02/18 02:41:47;;;;;;;37.17;20.58;;;;;;;3.53;100.00;93447.69;6202676;23;20082;-79
2023/02/18 02:44:25;;;;;;;39.40;21.67;;;;;;;3.56;100.00;93438.69;6202265;23;20012;-78
2023/02/18 02:47:00;;;;;;;36.47;20.50;;;;;;;3.55;100.00;93430.09;6201922;23;20203;-77
2023/02/18 02:49:43;;;;;;;37.78;21.35;;;;;;;3.57;100.00;93431.69;6202525;23;20013;-78
2023/02/18 02:52:19;;;;;;;38.88;21.10;;;;;;;3.55;100.00;93427.50;6229802;23;20009;-79
2023/02/18 02:54:45;;;;;;;40.90;21.02;;;;;;;3.55;100.00;93437.88;6230140;23;20023;-78
2023/02/18 02:57:17;;;;;;;38.88;21.85;;;;;;;3.53;100.00;93432.16;6204357;23;20091;-78
2023/02/18 03:00:04;;;;;;;36.80;21.08;;;;;;;3.53;100.00;93426.16;6203513;23;20009;-78
2023/02/18 03:02:45;;;;;;;40.80;22.23;;;;;;;3.54;100.00;93431.13;6202605;23;20009;-78
2023/02/18 03:05:51;;;;;;;37.90;21.23;;;;;;;3.55;100.00;93427.50;6203349;23;20051;-78
2023/02/18 03:08:34;;;;;;;38.92;21.48;;;;;;;3.54;100.00;93428.53;6178306;23;20445;-79
2023/02/18 03:11:06;;;;;;;39.25;21.73;;;;;;;3.57;100.00;93434.28;6204495;23;20341;-77
2023/02/18 03:13:48;;;;;;;42.45;23.30;;;;;;;3.58;100.00;93430.66;6179019;23;20040;-78
2023/02/18 03:16:25;;;;;;;42.15;21.90;;;;;;;3.55;100.00;93430.09;6202845;23;20020;-79
2023/02/18 03:19:28;;;;;;;42.33;21.58;;;;;;;3.52;100.00;93425.38;6203471;23;20009;-78
2023/02/18 03:22:17;;;;;;;39.20;22.58;;;;;;;3.48;100.00;93431.22;6203197;23;20013;-78
2023/02/18 03:24:47;;;;;;;39.08;22.15;;;;;;;3.47;100.00;93435.59;6203744;23;20012;-78
2023/02/18 03:27:24;;;;;;;38.83;21.63;;;;;;;3.44;100.00;93433.44;6230832;23;20012;-78
2023/02/18 03:29:56;;;;;;;41.78;21.35;;;;;;;3.43;100.00;93439.63;6227682;23;20016;-77
2023/02/18 03:32:22;;;;;;;;;;;;;;;3.45;100.00;93434.25;6196531;23;20112;-77
2023/02/18 03:34:54;;;;;;;38.95;19.17;;;;;;;3.43;100.00;93433.66;6223117;23;19908;-78
2023/02/18 03:37:21;;;;;;;41.50;20.50;;;;;;;3.35;100.00;93421.81;6223646;23;20005;-78
2023/02/18 03:39:53;;;;;;;43.60;20.00;;;;;;;3.37;100.00;93424.97;6170555;23;20004;-78
2023/02/18 03:42:23;;;;;;;36.57;19.67;;;;;;;3.37;100.00;93430.13;6196459;23;20021;-77
2023/02/18 03:44:49;;;;;;;39.63;20.10;;;;;;;3.36;100.00;93428.56;6196235;23;20032;-76
2023/02/18 03:47:15;;;;;;;36.15;19.63;;;;;;;3.37;100.00;93427.56;6172279;23;20017;-78
2023/02/18 03:49:40;;;;;;;38.95;20.42;;;;;;;3.36;100.00;93420.81;6205951;23;20024;-79
2023/02/18 03:52:06;;;;;;;39.63;18.75;;;;;;;3.34;100.00;93417.66;6182465;23;20035;-79
2023/02/18 03:54:33;;;;;;;37.03;18.63;;;;;;;3.37;100.00;93426.78;6180726;23;20099;-79
2023/02/18 03:56:59;;;;;;;38.08;19.20;;;;;;;3.35;100.00;93424.38;6228440;23;20072;-78
2023/02/18 03:59:25;;;;;;;34.55;18.35;;;;;;;3.32;100.00;93427.44;6231654;23;20460;-78
2023/02/18 04:01:50;;;;;;;42.65;19.23;;;;;;;3.31;100.00;93428.41;6204882;23;20019;-79
2023/02/18 04:04:16;;;;;;;36.58;19.40;;;;;;;3.32;100.00;93430.78;6231408;23;20019;-78
2023/02/18 04:06:41;;;;;;;39.83;18.77;;;;;;;3.29;100.00;93431.25;6228988;23;20004;-78
2023/02/18 04:09:07;;;;;;;36.10;18.92;;;;;;;3.28;100.00;93426.28;6229753;23;20484;-78
2023/02/18 04:11:38;;;;;;;36.50;18.98;;;;;;;3.24;100.00;93427.72;6231518;23;20004;-78
2023/02/18 04:14:04;;;;;;;34.97;18.35;;;;;;;3.21;100.00;93421.19;6231022;23;20008;-78
2023/02/18 04:16:30;;;;;;;38.38;17.98;;;;;;;3.22;100.00;93427.13;6229275;23;20004;-78
2023/02/18 04:18:55;;;;;;;33.95;18.75;;;;;;;3.16;100.00;93431.41;6227158;23;20016;-78
2023/02/18 04:21:21;;;;;;;35.28;17.98;;;;;;;3.18;100.00;93428.59;6230449;23;20387;-78
2023/02/18 04:23:47;;;;;;;33.63;17.60;;;;;;;3.15;100.00;93424.63;6229632;23;20012;-78
2023/02/18 04:26:12;;;;;;;34.55;16.60;;;;;;;3.19;100.00;93425.00;6179085;23;20087;-78
2023/02/18 04:28:38;;;;;;;36.22;16.23;;;;;;;3.18;100.00;93424.22;6231087;23;20026;-78
2023/02/18 04:31:04;;;;;;;31.10;15.65;;;;;;;3.18;100.00;93423.44;6205837;23;20072;-78
2023/02/18 04:33:29;;;;;;;31.70;15.30;;;;;;;3.19;100.00;93427.59;6204499;23;20094;-77
2023/02/18 04:35:55;;;;;;;28.80;14.13;;;;;;;3.18;100.00;93428.59;6232636;23;20032;-78
2023/02/18 04:38:21;;;;;;;28.67;15.05;;;;;;;3.16;100.00;93435.78;6230366;23;20012;-77
2023/02/18 04:40:46;;;;;;;26.83;13.68;;;;;;;3.15;100.00;93439.38;6205178;23;20004;-78
2023/02/18 04:43:12;;;;;;;36.22;14.80;;;;;;;3.12;100.00;93433.63;6222696;23;20024;-78
2023/02/18 04:45:37;;;;;;;28.20;14.70;;;;;;;3.10;100.00;93432.25;6224310;23;20004;-79
2023/02/18 04:48:03;;;;;;;29.38;14.88;;;;;;;3.10;100.00;93434.84;6229751;23;20059;-79
2023/02/18 04:50:29;;;;;;;29.20;15.60;;;;;;;3.14;100.00;93438.59;6207778;23;20001;-79
2023/02/18 04:52:54;;;;;;;34.75;15.25;;;;;;;3.12;100.00;93438.78;6230742;23;20016;-78
2023/02/18 04:55:20;;;;;;;34.33;15.55;;;;;;;3.07;100.00;93425.72;6227760;23;20029;-78
2023/02/18 04:57:46;;;;;;;32.78;15.15;;;;;;;3.07;100.00;93436.06;6203569;23;20016;-78
2023/02/18 05:00:16;;;;;;;32.40;14.68;;;;;;;3.07;100.00;93436.06;6202793;23;20048;-78
2023/02/18 05:02:43;;;;;;;30.00;15.43;;;;;;;3.06;100.00;93444.84;6229076;23;20016;-78
2023/02/18 05:05:09;;;;;;;30.23;14.27;;;;;;;3.03;100.00;93437.50;6228642;23;20086;-78
2023/02/18 05:07:35;;;;;;;27.88;13.45;;;;;;;3.05;100.00;93434.72;6203153;23;20016;-78
2023/02/18 05:10:00;;;;;;;25.92;12.90;;;;;;;3.03;100.00;93440.09;6228783;23;19997;-78
2023/02/18 05:12:26;;;;;;;26.15;12.32;;;;;;;3.02;100.00;93440.31;6203550;23;20032;-78
2023/02/18 05:14:52;;;;;;;24.23;12.82;;;;;;;3.00;100.00;93439.75;6202973;23;20004;-78
2023/02/18 05:17:17;;;;;;;31.10;14.32;;;;;;;2.98;100.00;93439.97;6227808;23;20019;-78
2023/02/18 05:19:43;;;;;;;25.45;13.95;;;;;;;2.98;100.00;93442.53;6228991;23;20031;-79
2023/02/18 05:22:08;;;;;;;20.70;11.30;;;;;;;2.95;100.00;93435.22;6200677;23;20429;-78
2023/02/18 05:24:34;;;;;;;22.67;11.43;;;;;;;2.96;100.00;93447.13;6226869;23;19996;-78
2023/02/18 05:27:00;;;;;;;22.90;11.82;;;;;;;2.91;100.00;93431.47;6229301;23;20290;-79
2023/02/18 05:29:26;;;;;;;22.40;12.40;;;;;;;2.89;100.00;93431.69;6202716;23;20043;-79
2023/02/18 05:31:52;;;;;;;25.13;13.45;;;;;;;2.91;100.00;93444.41;6205509;23;20020;-79
2023/02/18 05:34:18;;;;;;;29.83;14.27;;;;;;;2.90;100.00;93443.63;6230499;23;20031;-79
2023/02/18 05:36:44;;;;;;;27.20;13.60;;;;;;;2.90;100.00;93441.03;6204940;23;20016;-79
2023/02/18 05:39:10;;;;;;;25.38;13.63;;;;;;;2.90;100.00;93437.63;6180226;23;20004;-79
2023/02/18 05:41:37;;;;;;;25.55;13.65;;;;;;;2.91;100.00;93439.25;6231470;23;20020;-79
2023/02/18 05:46:46;;;;;;;34.70;15.20;;;;;;;2.90;100.00;93437.63;6230263;23;20031;-79
2023/02/18 05:49:13;;;;;;;29.80;15.13;;;;;;;2.89;100.00;93436.06;6203609;23;20064;-79
2023/02/18 05:51:38;;;;;;;28.02;15.55;;;;;;;2.87;100.00;93438.88;6203736;23;20016;-78
2023/02/18 05:54:04;;;;;;;31.48;15.27;;;;;;;2.84;100.00;93441.09;6204405;23;20030;-79
2023/02/18 05:56:30;;;;;;;28.70;16.58;;;;;;;2.85;100.00;93446.03;6221579;23;20021;-79
2023/02/18 05:58:56;;;;;;;32.40;17.95;;;;;;;2.85;100.00;93440.09;6229836;23;20012;-79
2023/02/18 06:01:22;;;;;;;36.25;17.67;;;;;;;2.84;100.00;93448.88;6206044;23;20012;-79
2023/02/18 06:03:50;;;;;;;34.88;17.27;;;;;;;2.84;100.00;93444.47;6230090;23;20004;-79
2023/02/18 06:06:16;;;;;;;35.75;16.50;;;;;;;2.86;100.00;93457.19;6230215;23;20080;-79
2023/02/18 06:08:50;;;;;;;30.90;16.40;;;;;;;2.82;100.00;93450.88;6205612;23;20005;-80
2023/02/18 06:11:26;;;;;;;33.63;15.57;;;;;;;2.86;100.00;93457.19;6230675;23;20008;-80
2023/02/18 06:13:57;;;;;;;30.95;16.33;;;;;;;2.89;100.00;93454.19;6231376;23;20035;-78
2023/02/18 06:16:37;;;;;;;30.63;16.15;;;;;;;2.89;100.00;93449.78;6230321;23;20036;-78
2023/02/18 06:19:02;;;;;;;29.17;15.80;;;;;;;2.92;100.00;93456.31;6231550;23;20103;-79
2023/02/18 06:21:28;;;;;;;27.35;14.63;;;;;;;2.92;100.00;93454.53;6229931;23;20000;-79
2023/02/18 06:23:56;;;;;;;27.80;13.85;;;;;;;2.94;100.00;93459.50;6231320;23;20340;-80
2023/02/18 06:26:21;;;;;;;29.15;14.60;;;;;;;2.94;100.00;93466.47;6231702;23;20000;-80
2023/02/18 06:28:47;;;;;;;25.10;14.75;;;;;;;2.92;100.00;93459.69;6230771;23;20043;-80
2023/02/18 06:31:13;;;;;;;25.27;14.15;;;;;;;2.94;100.00;93458.72;6230409;23;20011;-79
2023/02/18 06:33:38;;;;;;;28.42;13.90;;;;;;;2.98;100.00;93454.69;6229543;23;20396;-79
2023/02/18 06:36:07;;;;;;;28.25;14.40;;;;;;;3.07;100.00;93464.53;6231246;23;20384;-79
2023/02/18 06:38:34;;;;;;;24.85;14.02;;;;;;;3.20;100.00;93465.38;6231701;23;20019;-79
2023/02/18 06:41:10;;;;;;;24.65;13.68;;;;;;;3.69;100.00;93472.16;6230970;23;20000;-80
2023/02/18 06:43:36;;;;;;;25.92;13.98;;;;;;;4.13;100.00;93466.78;6230396;23;20039;-79
2023/02/18 06:46:21;;;;;;;26.40;13.43;;;;;;;4.33;100.00;93466.47;6231751;23;20005;-79
2023/02/18 06:48:46;;;;;;;33.45;13.27;;;;;;;4.49;100.00;93471.00;6229886;23;20017;-80
2023/02/18 06:51:12;;;;;;;28.52;13.50;;;;;;;4.57;100.00;93465.50;6230651;23;20027;-79
2023/02/18 06:53:38;;;;;;;23.80;13.02;;;;;;;4.65;100.00;93456.56;6230393;23;20023;-79
2023/02/18 06:56:03;;;;;;;26.77;13.68;;;;;;;4.74;100.00;93465.59;6230659;23;20021;-79
2023/02/18 06:58:35;;;;;;;25.70;13.82;;;;;;;4.87;100.00;93448.25;6230484;23;20068;-80
2023/02/18 07:01:05;;;;;;;24.88;14.63;;;;;;;5.16;100.00;93464.69;6203654;23;20017;-80
2023/02/18 07:03:31;;;;;;;25.52;14.35;;;;;;;5.53;99.08;93457.34;6230556;23;20012;-79
2023/02/18 07:05:56;;;;;;;27.55;14.82;;;;;;;6.08;95.92;93460.44;6205309;23;20447;-79
2023/02/18 07:08:43;;;;;;;28.02;14.57;;;;;;;6.80;94.37;93465.75;6179276;23;20021;-80
2023/02/18 07:11:13;;;;;;;29.67;14.95;;;;;;;7.21;87.85;93458.50;6229666;23;20031;-80
2023/02/18 07:13:39;;;;;;;23.90;14.23;;;;;;;7.53;84.37;93462.25;6204157;23;20012;-80
2023/02/18 07:16:11;;;;;;;25.42;14.40;;;;;;;7.80;82.44;93459.69;6203311;23;20144;-80
2023/02/18 07:18:36;;;;;;;28.27;15.73;;;;;;;7.98;83.01;93461.19;6204493;23;20012;-80
2023/02/18 07:21:02;;;;;;;25.20;14.90;;;;;;;8.39;79.46;93458.94;6204091;23;20032;-80
2023/02/18 07:23:39;;;;;;;29.75;15.30;;;;;;;8.85;77.98;93465.34;6204585;23;20016;-80
2023/02/18 07:26:10;;;;;;;26.13;15.20;;;;;;;9.01;75.63;93460.22;6230154;23;20023;-80
2023/02/18 07:28:36;;;;;;;23.05;14.57;;;;;;;9.13;74.30;93456.34;6228050;23;20345;-80
2023/02/18 07:31:03;;;;;;;28.17;14.13;;;;;;;9.23;74.28;93455.66;6216551;23;20007;-77
2023/02/18 07:33:28;;;;;;;27.23;14.65;;;;;;;9.26;73.89;93459.56;6215308;23;20087;-76
2023/02/18 07:35:56;;;;;;;28.42;14.45;;;;;;;9.66;72.98;93461.56;6215047;23;20055;-76
2023/02/18 07:38:22;;;;;;;28.65;14.27;;;;;;;10.21;71.65;93465.38;6217538;23;20004;-77
2023/02/18 07:40:48;;;;;;;27.00;14.80;;;;;;;10.70;68.80;93471.22;6194410;23;20027;-77
2023/02/18 07:43:14;;;;;;;27.00;15.27;;;;;;;11.08;66.85;93471.69;6221516;23;20013;-78
2023/02/18 07:45:40;;;;;;;20.67;13.85;;;;;;;11.24;65.20;93473.25;6170505;23;20008;-79
2023/02/18 07:48:05;;;;;;;21.98;14.82;;;;;;;11.06;65.49;93473.81;6222037;23;20017;-78
2023/02/18 07:50:34;;;;;;;23.35;14.90;;;;;;;11.01;64.61;93479.81;6194843;23;20058;-78
2023/02/18 07:53:00;;;;;;;27.00;14.52;;;;;;;11.21;65.14;93479.81;6190846;23;20130;-77
2023/02/18 07:55:47;;;;;;;26.13;15.23;;;;;;;11.18;64.30;93482.16;6217904;23;20016;-77
2023/02/18 07:58:21;;;;;;;25.25;15.35;;;;;;;11.40;64.52;93481.84;6219331;23;20004;-78
2023/02/18 08:00:48;;;;;;;23.80;14.98;;;;;;;11.63;63.94;93481.25;6195344;23;20023;-78
2023/02/18 08:03:16;;;;;;;24.30;15.45;;;;;;;11.92;64.07;93491.13;6169373;23;20004;-76
2023/02/18 08:05:42;;;;;;;23.85;15.07;;;;;;;12.19;62.28;93485.50;6194598;23;20132;-78
2023/02/18 08:08:12;;;;;;;26.77;15.40;;;;;;;12.23;62.13;93480.50;6216612;23;20032;-77
2023/02/18 08:10:38;;;;;;;26.67;15.50;;;;;;;12.34;60.56;93484.63;6217578;23;20008;-78
2023/02/18 08:13:03;;;;;;;27.10;15.20;;;;;;;12.45;60.02;93487.94;6217114;23;20079;-77
2023/02/18 08:15:29;;;;;;;29.33;16.67;;;;;;;11.98;60.15;93494.50;6190604;23;20063;-77
2023/02/18 08:17:55;;;;;;;24.60;15.02;;;;;;;12.20;61.47;93492.28;6216762;23;20437;-77
2023/02/18 08:20:20;;;;;;;25.58;15.25;;;;;;;12.23;58.73;93494.41;6216666;23;20012;-77
2023/02/18 08:22:46;;;;;;;27.25;15.63;;;;;;;11.86;60.62;93492.19;6218570;23;20031;-77
2023/02/18 08:25:12;;;;;;;23.08;15.05;;;;;;;11.68;60.86;93490.94;6217574;23;20020;-76
2023/02/18 08:27:37;;;;;;;24.17;15.02;;;;;;;11.69;60.61;93491.75;6215254;23;20015;-76
2023/02/18 08:30:03;;;;;;;24.98;14.85;;;;;;;11.50;61.42;93486.28;6213889;23;20012;-76
2023/02/18 08:32:29;;;;;;;25.73;14.90;;;;;;;11.49;61.79;93492.59;6214217;23;20001;-76
2023/02/18 08:34:55;;;;;;;24.20;13.88;;;;;;;11.39;61.53;93488.94;6214639;23;20069;-77
2023/02/18 08:37:21;;;;;;;23.75;14.25;;;;;;;11.48;60.29;93497.03;6214619;23;20004;-76
2023/02/18 08:39:46;;;;;;;23.70;14.10;;;;;;;11.53;60.55;93490.97;6213832;23;20096;-76
2023/02/18 08:42:12;;;;;;;26.20;13.32;;;;;;;11.80;59.54;93488.03;6214093;23;20004;-77
2023/02/18 08:44:38;;;;;;;25.52;14.32;;;;;;;11.50;61.24;93486.28;6214627;23;20013;-77
2023/02/18 08:47:04;;;;;;;22.70;14.70;;;;;;;11.07;61.07;93491.09;6214096;23;20012;-76
2023/02/18 08:49:30;;;;;;;24.42;15.23;;;;;;;10.97;63.38;93490.03;6213878;23;20012;-76
2023/02/18 08:51:55;;;;;;;22.17;13.80;;;;;;;10.90;63.64;93489.53;6188316;23;20004;-76
2023/02/18 08:54:21;;;;;;;24.48;14.88;;;;;;;10.51;65.65;93495.28;6214329;23;20016;-77
2023/02/18 08:56:47;;;;;;;24.60;15.65;;;;;;;10.40;65.39;93488.44;6208452;23;20021;-77
2023/02/18 08:59:13;;;;;;;23.45;13.82;;;;;;;10.39;65.97;93487.66;6214417;23;20112;-77
2023/02/18 09:01:38;;;;;;;24.88;15.95;;;;;;;10.57;65.94;93486.38;6214209;23;20084;-76
2023/02/18 09:04:04;;;;;;;26.52;15.90;;;;;;;10.79;65.08;93488.75;6214674;23;20063;-76
2023/02/18 09:06:29;;;;;;;26.70;15.73;;;;;;;10.79;64.69;93488.75;6214787;23;20452;-76
2023/02/18 09:08:55;;;;;;;24.77;14.73;;;;;;;10.71;65.33;93485.88;6214361;23;20433;-76
2023/02/18 09:11:21;;;;;;;22.98;15.07;;;;;;;10.69;65.93;93487.94;6214539;23;20050;-76
2023/02/18 09:13:46;;;;;;;23.52;13.80;;;;;;;10.93;63.16;93486.38;6214014;23;20021;-77
2023/02/18 09:16:17;;;;;;;22.35;14.60;;;;;;;11.00;64.33;93484.28;6193212;23;20015;-75
2023/02/18 09:18:43;;;;;;;26.65;14.85;;;;;;;11.33;62.62;93490.00;6213767;23;20068;-77
2023/02/18 09:21:12;;;;;;;18.30;11.38;;;;;;;11.61;60.49;93485.19;6215797;23;20071;-77
2023/02/18 09:23:38;;;;;;;22.33;14.10;;;;;;;11.38;60.52;93487.34;6215467;23;20510;-77
2023/02/18 09:26:07;;;;;;;24.85;14.32;;;;;;;11.49;60.59;93482.88;6215014;23;20356;-77
2023/02/18 09:28:34;;;;;;;21.05;13.48;;;;;;;12.04;59.77;93477.69;6216427;23;20104;-76
2023/02/18 09:31:08;;;;;;;25.83;14.50;;;;;;;11.86;59.62;93484.31;6216661;23;20096;-77
2023/02/18 09:33:38;;;;;;;25.60;13.23;;;;;;;11.92;59.15;93485.13;6220121;23;20017;-77
2023/02/18 09:36:05;;;;;;;23.83;14.05;;;;;;;11.65;60.50;93481.00;6223946;23;20004;-77
2023/02/18 09:38:30;;;;;;;24.08;14.38;;;;;;;11.34;60.67;93488.16;6216076;23;20019;-76
2023/02/18 09:40:58;;;;;;;24.70;13.00;;;;;;;11.01;61.90;93483.25;6212656;23;19996;-76
2023/02/18 09:43:32;;;;;;;26.13;15.23;;;;;;;11.08;63.15;93482.16;6212419;23;20307;-76
2023/02/18 09:46:00;;;;;;;24.67;16.60;;;;;;;11.11;62.59;93481.66;6214216;23;20008;-76
2023/02/18 09:48:31;;;;;;;14.27;8.70;;;;;;;11.33;61.03;93479.50;6213933;23;20441;-76
2023/02/18 09:50:57;;;;;;;22.45;14.32;;;;;;;11.42;61.79;93477.13;6214143;23;20013;-76
2023/02/18 09:53:24;;;;;;;25.23;15.52;;;;;;;11.22;61.90;93478.75;6213861;23;20076;-76
2023/02/18 09:55:55;;;;;;;20.98;12.50;;;;;;;11.23;61.52;93479.53;6213931;23;20021;-76
2023/02/18 09:58:26;;;;;;;26.83;14.15;;;;;;;11.67;62.04;93473.63;6212427;23;20085;-76
2023/02/18 10:01:30;;;;;;;25.15;15.48;;;;;;;11.69;61.91;93470.75;6187226;23;20051;-76
2023/02/18 10:04:03;;;;;;;18.08;10.80;;;;;;;11.65;62.37;93471.28;6213513;23;20004;-76
2023/02/18 10:06:34;;;;;;;28.15;16.85;;;;;;;11.54;61.98;93474.22;6213517;23;20104;-76
2023/02/18 10:09:13;;;;;;;16.15;10.13;;;;;;;11.79;61.86;93465.44;6213686;23;20104;-76
2023/02/18 10:11:41;;;;;;;27.52;17.75;;;;;;;11.37;63.06;93467.44;6213289;23;20044;-76
2023/02/18 10:14:12;;;;;;;26.40;16.65;;;;;;;11.48;63.55;93464.78;6213713;23;20023;-76
2023/02/18 10:16:38;;;;;;;26.40;17.15;;;;;;;11.66;62.79;93466.81;6213894;23;20498;-76
2023/02/18 10:19:15;;;;;;;27.48;18.38;;;;;;;11.72;62.12;93464.97;6213679;23;20001;-76
2023/02/18 10:21:41;;;;;;;25.50;16.25;;;;;;;11.64;62.69;93455.78;6186445;23;20084;-76
2023/02/18 10:24:31;;;;;;;25.83;16.83;;;;;;;11.57;64.19;93457.94;6187000;23;20006;-77
2023/02/18 10:26:59;;;;;;;24.40;14.57;;;;;;;11.88;62.67;93469.88;6187278;23;20360;-76
2023/02/18 10:29:26;;;;;;;26.73;16.52;;;;;;;11.84;59.84;93474.09;6215556;23;20007;-77
2023/02/18 10:31:56;;;;;;;20.92;14.30;;;;;;;11.86;62.62;93461.47;6214642;23;20043;-77
2023/02/18 10:34:21;;;;;;;31.60;16.48;;;;;;;11.74;63.58;93463.63;6215341;23;20016;-77
2023/02/18 10:37:00;;;;;;;15.75;12.05;;;;;;;11.98;61.62;93465.63;6213164;23;20054;-77
2023/02/18 10:39:51;;;;;;;32.63;17.73;;;;;;;11.65;62.95;93460.00;6213950;23;20009;-76
2023/02/18 10:42:44;;;;;;;27.42;18.95;;;;;;;11.61;64.67;93470.22;6208405;23;20012;-76
2023/02/18 10:45:28;;;;;;;20.80;13.60;;;;;;;11.35;64.45;93459.06;6214507;23;20039;-75
2023/02/18 10:47:54;;;;;;;29.02;17.58;;;;;;;11.52;65.65;93463.97;6186523;23;20016;-77
2023/02/18 10:50:34;;;;;;;27.30;17.92;;;;;;;11.63;65.04;93462.09;6213213;23;19997;-75
2023/02/18 10:53:09;;;;;;;28.27;17.65;;;;;;;11.83;64.97;93463.88;6186181;23;20012;-74
2023/02/18 10:55:41;;;;;;;24.10;16.02;;;;;;;11.98;63.41;93463.81;6201151;23;20013;-78
2023/02/18 10:58:41;;;;;;;24.67;14.40;;;;;;;11.94;63.05;93460.16;6224454;23;20044;-79
2023/02/18 11:01:15;;;;;;;25.90;16.80;;;;;;;11.80;63.67;93462.56;6224267;23;20024;-78
2023/02/18 11:03:47;;;;;;;32.60;20.63;;;;;;;12.20;63.87;93452.91;6226262;23;20047;-79
2023/02/18 11:06:37;;;;;;;28.08;17.33;;;;;;;11.91;64.01;93462.53;6228247;23;20019;-79
2023/02/18 11:09:03;;;;;;;27.02;15.75;;;;;;;11.65;64.43;93446.88;6229796;23;20016;-78
2023/02/18 11:11:35;;;;;;;27.42;18.00;;;;;;;11.56;65.04;93445.88;6218926;23;20005;-77
2023/02/18 11:14:03;;;;;;;23.35;14.48;;;;;;;11.46;65.07;93444.88;6215710;23;20027;-77
2023/02/18 11:16:43;;;;;;;23.67;15.00;;;;;;;11.32;65.74;93450.94;6215416;23;20003;-76
2023/02/18 11:19:31;;;;;;;20.48;12.38;;;;;;;11.60;65.01;93441.69;6214975;23;20051;-76
2023/02/18 11:22:14;;;;;;;34.15;22.35;;;;;;;11.73;65.01;93435.84;6214960;23;20059;-76
2023/02/18 11:24:46;;;;;;;29.20;19.75;;;;;;;11.82;64.07;93434.22;6212945;23;20009;-77
2023/02/18 11:27:41;;;;;;;31.70;19.15;;;;;;;11.87;64.37;93434.22;6217055;23;20079;-77
2023/02/18 11:30:30;;;;;;;33.55;20.98;;;;;;;12.22;63.16;93431.66;6217383;23;20351;-77
2023/02/18 11:33:07;;;;;;;26.08;16.23;;;;;;;12.08;63.72;93423.63;6216338;23;20076;-77